Time;durP1;ratioP1;P1;durP2;ratioP2;P2;SDS_P1;SDS_P2;PMS_P1;PMS_P2;Temp;Humidity;BMP_temperature;BMP_pressure;BME280_temperature;BME280_humidity;BME280_pressure;Samples;Min_cycle;Max_cycle;Signal;HPM_P1;HPM_P2
2021/12/12 00:00:15;;;;;;;63.75;29.80;;;4.70;99.90;;;;;;5035748;28;20037;-57
2021/12/12 00:03:00;;;;;;;57.50;28.35;;;4.70;99.90;;;;;;5034955;28;20484;-58
2021/12/12 00:05:35;;;;;;;62.33;28.58;;;4.70;99.90;;;;;;5052788;28;20044;-57
2021/12/12 00:08:04;;;;;;;56.13;28.65;;;4.70;99.90;;;;;;5053847;28;20041;-60
2021/12/12 00:10:34;;;;;;;63.38;28.63;;;4.60;99.90;;;;;;5052359;28;20453;-57
2021/12/12 00:13:06;;;;;;;57.00;27.90;;;4.80;99.90;;;;;;5052066;28;20036;-58
2021/12/12 00:15:32;;;;;;;64.65;29.20;;;4.90;99.90;;;;;;5052952;28;20120;-59
2021/12/12 00:17:57;;;;;;;53.15;26.55;;;4.70;99.90;;;;;;5053223;28;20187;-56
2021/12/12 00:20:27;;;;;;;63.67;29.15;;;4.90;99.90;;;;;;5054685;28;20048;-58
2021/12/12 00:22:59;;;;;;;58.47;29.45;;;4.90;99.90;;;;;;5057150;28;20403;-58
2021/12/12 00:25:26;;;;;;;58.75;26.70;;;4.80;99.90;;;;;;5055601;28;20113;-58
2021/12/12 00:27:52;;;;;;;58.70;25.42;;;5.00;99.90;;;;;;5055802;28;20056;-58
2021/12/12 00:30:17;;;;;;;71.25;29.33;;;4.90;99.90;;;;;;5055642;28;20051;-56
2021/12/12 00:32:43;;;;;;;55.45;27.30;;;4.90;99.90;;;;;;5056730;28;20048;-57
2021/12/12 00:35:14;;;;;;;56.17;27.45;;;5.10;99.90;;;;;;5055509;28;20063;-59
2021/12/12 00:37:40;;;;;;;51.92;25.70;;;5.00;99.90;;;;;;5057047;28;20040;-58
2021/12/12 00:40:29;;;;;;;51.38;27.27;;;5.00;99.90;;;;;;5057007;28;20060;-58
2021/12/12 00:42:58;;;;;;;53.58;26.45;;;4.90;99.90;;;;;;5021987;28;20047;-59
2021/12/12 00:45:24;;;;;;;51.20;26.20;;;5.00;99.90;;;;;;5056782;28;20076;-59
2021/12/12 00:47:50;;;;;;;56.10;28.77;;;4.90;99.90;;;;;;5056631;28;20045;-58
2021/12/12 00:50:23;;;;;;;59.80;25.63;;;4.90;99.90;;;;;;5054715;28;20049;-58
2021/12/12 00:52:50;;;;;;;51.78;26.23;;;4.90;99.90;;;;;;5055197;28;20049;-58
2021/12/12 00:55:16;;;;;;;54.28;25.48;;;4.90;99.90;;;;;;5056369;28;20072;-57
2021/12/12 00:57:43;;;;;;;51.67;25.10;;;4.90;99.90;;;;;;5054641;28;20103;-58
2021/12/12 01:00:12;;;;;;;56.92;26.83;;;4.90;99.90;;;;;;5037984;28;20037;-57
2021/12/12 01:02:38;;;;;;;51.58;25.48;;;4.90;99.90;;;;;;5036223;28;20116;-58
2021/12/12 01:05:07;;;;;;;57.15;24.67;;;4.90;99.90;;;;;;5035062;28;20073;-57
2021/12/12 01:07:35;;;;;;;53.65;25.70;;;5.00;99.90;;;;;;5036009;28;20037;-58
2021/12/12 01:10:19;;;;;;;56.75;24.30;;;5.00;99.90;;;;;;5036128;28;20112;-58
2021/12/12 01:12:44;;;;;;;49.58;24.17;;;4.90;99.90;;;;;;5036274;28;20404;-58
2021/12/12 01:15:27;;;;;;;52.67;24.20;;;5.00;99.90;;;;;;5035272;28;20049;-57
2021/12/12 01:17:56;;;;;;;45.85;23.60;;;4.90;99.90;;;;;;5035647;28;20068;-58
2021/12/12 01:20:24;;;;;;;54.05;24.48;;;5.00;99.90;;;;;;5036068;28;20553;-58
2021/12/12 01:22:52;;;;;;;52.83;24.48;;;4.90;99.90;;;;;;5035571;28;20048;-58
2021/12/12 01:25:32;;;;;;;54.08;23.73;;;5.00;99.90;;;;;;5034202;28;20037;-59
2021/12/12 01:27:57;;;;;;;53.42;25.88;;;5.20;99.90;;;;;;5017910;28;20049;-55
2021/12/12 01:30:24;;;;;;;49.53;25.92;;;5.00;99.90;;;;;;5034771;28;20033;-57
2021/12/12 01:32:50;;;;;;;55.95;27.23;;;5.10;99.90;;;;;;5050761;28;20045;-58
2021/12/12 01:35:19;;;;;;;62.72;26.35;;;5.10;99.90;;;;;;5035286;28;20041;-56
2021/12/12 01:40:33;;;;;;;53.53;25.13;;;4.90;99.90;;;;;;5035252;28;20488;-59
2021/12/12 01:43:15;;;;;;;58.55;25.63;;;5.10;99.90;;;;;;5034811;28;20033;-58
2021/12/12 01:45:45;;;;;;;48.40;25.33;;;5.10;99.90;;;;;;5035403;28;20034;-56
2021/12/12 01:48:23;;;;;;;51.42;24.35;;;5.10;99.90;;;;;;5033579;28;20045;-58
2021/12/12 01:50:55;;;;;;;53.58;25.60;;;5.10;99.90;;;;;;5017164;28;20064;-58
2021/12/12 01:53:26;;;;;;;59.30;23.98;;;5.10;99.90;;;;;;5017633;28;20487;-59
2021/12/12 01:56:07;;;;;;;51.60;23.35;;;5.20;99.90;;;;;;5033871;28;20048;-59
2021/12/12 01:58:35;;;;;;;64.53;26.55;;;5.20;99.90;;;;;;5033861;28;20072;-59
2021/12/12 02:01:16;;;;;;;56.15;25.17;;;5.20;99.90;;;;;;5034821;28;20037;-58
2021/12/12 02:03:47;;;;;;;53.30;24.73;;;5.20;99.90;;;;;;5034253;28;20046;-56
2021/12/12 02:06:15;;;;;;;49.03;24.13;;;5.20;99.90;;;;;;5033694;28;20045;-59
2021/12/12 02:08:41;;;;;;;55.15;24.52;;;5.20;99.90;;;;;;5034765;28;20041;-58
2021/12/12 02:11:16;;;;;;;53.80;24.48;;;5.30;99.90;;;;;;5034648;28;20439;-59
2021/12/12 02:13:46;;;;;;;54.15;26.02;;;5.20;99.90;;;;;;5034771;28;20146;-58
2021/12/12 02:16:13;;;;;;;56.53;25.45;;;5.10;99.90;;;;;;5034947;28;20497;-59
2021/12/12 02:18:45;;;;;;;53.05;24.00;;;5.20;99.90;;;;;;5034516;28;20507;-58
2021/12/12 02:21:31;;;;;;;54.03;24.52;;;5.40;99.90;;;;;;5033986;28;20033;-60
2021/12/12 02:35:05;;;;;;;53.22;23.90;;;5.20;99.90;;;;;;5034481;28;20033;-58
2021/12/12 02:35:22;;;;;;;48.15;21.88;;;5.20;99.90;;;;;;5033065;28;20057;-58
2021/12/12 02:37:50;;;;;;;49.25;24.20;;;5.10;99.90;;;;;;5034701;28;20045;-57
2021/12/12 02:40:20;;;;;;;52.60;23.30;;;5.30;99.90;;;;;;5033469;28;20388;-58
2021/12/12 02:42:46;;;;;;;55.63;23.45;;;5.30;99.90;;;;;;5033973;28;20038;-58
2021/12/12 02:45:16;;;;;;;50.30;24.88;;;5.20;99.90;;;;;;5033795;28;20046;-58
2021/12/12 02:47:43;;;;;;;50.25;23.17;;;5.10;99.90;;;;;;5034031;28;20040;-57
2021/12/12 02:50:23;;;;;;;49.13;23.27;;;5.30;99.90;;;;;;5032452;28;20041;-58
2021/12/12 02:52:53;;;;;;;52.00;23.40;;;5.40;99.90;;;;;;5033708;28;20057;-57
2021/12/12 02:55:22;;;;;;;51.53;24.52;;;5.20;99.90;;;;;;5033310;28;20471;-58
2021/12/12 02:57:48;;;;;;;48.28;22.70;;;5.30;99.90;;;;;;5033745;28;20560;-58
2021/12/12 03:00:17;;;;;;;49.35;23.70;;;;;;;;;;5033494;28;20041;-56
2021/12/12 03:02:46;;;;;;;50.65;22.10;;;5.20;99.90;;;;;;5032721;28;20046;-58
2021/12/12 03:05:17;;;;;;;56.47;22.08;;;5.20;99.90;;;;;;5032515;28;20427;-58
2021/12/12 03:07:44;;;;;;;41.40;20.88;;;5.20;99.90;;;;;;5032268;28;20050;-58
2021/12/12 03:10:15;;;;;;;47.70;20.77;;;5.30;99.90;;;;;;5033666;28;20145;-58
2021/12/12 03:12:42;;;;;;;53.35;24.02;;;5.20;99.90;;;;;;5032710;28;20132;-57
2021/12/12 03:15:27;;;;;;;56.20;23.05;;;5.30;99.90;;;;;;5033449;28;20545;-55
2021/12/12 03:17:56;;;;;;;55.58;24.42;;;5.30;99.90;;;;;;5033730;28;20029;-55
2021/12/12 03:20:33;;;;;;;46.25;21.02;;;5.30;99.90;;;;;;5032480;28;20037;-58
2021/12/12 03:23:23;;;;;;;54.15;22.13;;;5.30;99.90;;;;;;5033923;28;20033;-55
2021/12/12 03:25:53;;;;;;;45.20;23.00;;;5.40;99.90;;;;;;5032469;28;20052;-58
2021/12/12 03:28:22;;;;;;;44.05;23.02;;;5.30;99.90;;;;;;5049010;28;20037;-57
2021/12/12 03:30:50;;;;;;;45.15;19.98;;;5.40;99.90;;;;;;5033627;28;20084;-58
2021/12/12 03:33:16;;;;;;;42.67;21.92;;;5.20;99.90;;;;;;5033634;28;20399;-58
2021/12/12 03:35:47;;;;;;;42.92;22.08;;;5.50;99.90;;;;;;5033359;28;20045;-56
2021/12/12 03:38:13;;;;;;;59.25;23.50;;;5.60;99.90;;;;;;5032017;28;20053;-57
2021/12/12 03:40:40;;;;;;;47.60;22.73;;;5.40;99.90;;;;;;5033205;28;20042;-56
2021/12/12 03:43:07;;;;;;;50.50;21.98;;;5.40;99.90;;;;;;5015570;28;20125;-58
2021/12/12 03:45:35;;;;;;;48.42;23.17;;;5.30;99.90;;;;;;5032002;28;20128;-58
2021/12/12 03:48:06;;;;;;;43.58;22.20;;;5.30;99.90;;;;;;5031901;28;20525;-59
2021/12/12 03:50:35;;;;;;;42.35;21.77;;;5.40;99.90;;;;;;5032683;28;20132;-56
2021/12/12 03:53:01;;;;;;;42.92;20.83;;;5.40;99.90;;;;;;5031815;28;20058;-58
2021/12/12 03:55:28;;;;;;;38.90;19.88;;;5.30;99.90;;;;;;5036673;28;20065;-58
2021/12/12 03:57:54;;;;;;;44.33;21.90;;;5.40;99.90;;;;;;5035509;28;20041;-58
2021/12/12 04:00:28;;;;;;;39.83;22.50;;;5.40;99.90;;;;;;5035819;28;20369;-57
2021/12/12 04:02:54;;;;;;;36.90;19.70;;;5.30;99.90;;;;;;5035244;28;20052;-58
2021/12/12 04:05:20;;;;;;;42.42;20.88;;;5.60;99.90;;;;;;5035500;28;20045;-59
2021/12/12 04:07:46;;;;;;;55.22;23.23;;;5.30;99.90;;;;;;5035491;28;20045;-59
2021/12/12 04:10:16;;;;;;;36.55;21.88;;;5.40;99.90;;;;;;5036800;28;20045;-58
2021/12/12 04:12:42;;;;;;;35.13;20.88;;;5.40;99.90;;;;;;5036773;28;20045;-58
2021/12/12 04:15:09;;;;;;;41.05;20.38;;;5.30;99.90;;;;;;5035866;28;20037;-58
2021/12/12 04:17:35;;;;;;;44.33;21.67;;;5.30;99.90;;;;;;5035755;28;20061;-57
2021/12/12 04:20:13;;;;;;;41.88;19.48;;;5.60;99.90;;;;;;5037048;28;20038;-58
2021/12/12 04:22:39;;;;;;;37.42;20.38;;;5.40;99.90;;;;;;5035626;28;20036;-58
2021/12/12 04:25:05;;;;;;;33.47;21.15;;;5.40;99.90;;;;;;5035280;28;20041;-57
2021/12/12 04:27:31;;;;;;;38.17;19.85;;;5.50;99.90;;;;;;5036535;28;20041;-59
2021/12/12 04:30:00;;;;;;;32.70;19.25;;;5.40;99.90;;;;;;5035222;28;20060;-59
2021/12/12 04:32:28;;;;;;;36.63;19.33;;;5.50;99.90;;;;;;5035221;28;20053;-56
2021/12/12 04:34:57;;;;;;;34.20;17.20;;;5.30;99.90;;;;;;5035137;28;20060;-57
2021/12/12 04:37:24;;;;;;;29.98;17.45;;;5.60;99.90;;;;;;5036168;28;20087;-58
2021/12/12 04:39:53;;;;;;;28.80;17.27;;;5.60;99.90;;;;;;5034714;28;20041;-57
2021/12/12 04:42:27;;;;;;;31.38;17.15;;;5.60;99.90;;;;;;5036750;28;20117;-59
2021/12/12 04:45:09;;;;;;;29.80;16.45;;;5.60;99.90;;;;;;5036692;28;20052;-58
2021/12/12 04:50:36;;;;;;;28.30;16.25;;;5.60;99.90;;;;;;5034246;28;20133;-58
2021/12/12 04:53:15;;;;;;;22.10;14.90;;;5.50;99.90;;;;;;5036303;28;20041;-58
2021/12/12 04:56:10;;;;;;;27.92;16.60;;;5.90;99.90;;;;;;5035774;28;20037;-59
2021/12/12 04:58:44;;;;;;;28.70;15.55;;;5.60;99.90;;;;;;5036686;28;20033;-59
2021/12/12 05:01:19;;;;;;;25.95;14.38;;;5.70;99.90;;;;;;5035785;28;20119;-59
2021/12/12 05:04:01;;;;;;;24.70;14.10;;;5.70;99.90;;;;;;5035022;28;20098;-58
2021/12/12 05:06:29;;;;;;;25.98;15.57;;;5.70;99.90;;;;;;5035469;28;20073;-57
2021/12/12 05:09:14;;;;;;;26.02;15.95;;;5.80;99.90;;;;;;5030315;28;20044;-59
2021/12/12 05:11:47;;;;;;;29.77;15.93;;;5.80;99.90;;;;;;5056595;28;20044;-58
2021/12/12 05:14:22;;;;;;;23.98;15.18;;;5.70;99.90;;;;;;5055442;28;20167;-59
2021/12/12 05:16:53;;;;;;;31.45;16.30;;;5.80;99.90;;;;;;5055113;28;20043;-60
2021/12/12 05:19:27;;;;;;;27.25;16.08;;;5.90;99.90;;;;;;5055634;28;20045;-59
2021/12/12 05:21:58;;;;;;;30.38;16.88;;;5.90;99.90;;;;;;5055529;28;20059;-58
2021/12/12 05:24:27;;;;;;;28.75;17.38;;;5.90;99.90;;;;;;5054084;28;20053;-57
2021/12/12 05:26:57;;;;;;;28.83;15.73;;;5.90;99.90;;;;;;5055659;28;20055;-59
2021/12/12 05:29:30;;;;;;;29.67;16.30;;;;;;;;;;5054172;28;20056;-59
2021/12/12 05:32:00;;;;;;;25.58;17.00;;;6.00;99.90;;;;;;5054170;28;20037;-59
2021/12/12 05:34:31;;;;;;;27.80;15.90;;;6.00;99.90;;;;;;5051509;28;20045;-59
2021/12/12 05:36:58;;;;;;;27.58;16.38;;;6.00;99.90;;;;;;5056005;28;20041;-59
2021/12/12 05:39:25;;;;;;;28.33;16.73;;;6.00;99.90;;;;;;5052891;28;20044;-60
2021/12/12 05:41:53;;;;;;;26.45;16.13;;;6.00;99.90;;;;;;5054252;28;20499;-60
2021/12/12 05:44:19;;;;;;;23.52;15.90;;;5.90;99.90;;;;;;5054434;28;20068;-60
2021/12/12 05:46:45;;;;;;;27.45;16.30;;;6.10;99.90;;;;;;5054210;28;20542;-60
2021/12/12 05:49:11;;;;;;;31.98;16.52;;;6.10;99.90;;;;;;5054086;28;20076;-61
2021/12/12 05:51:37;;;;;;;28.63;17.83;;;6.00;99.90;;;;;;5054010;28;20060;-60
2021/12/12 05:54:05;;;;;;;29.77;16.67;;;5.90;99.90;;;;;;5054289;28;20041;-60
2021/12/12 05:56:33;;;;;;;30.65;18.45;;;;;;;;;;5053975;28;20506;-61
2021/12/12 05:58:59;;;;;;;29.98;19.17;;;6.20;99.90;;;;;;5044166;28;20122;-61
2021/12/12 06:01:28;;;;;;;26.67;16.75;;;6.20;99.90;;;;;;5034135;28;20399;-61
2021/12/12 06:03:54;;;;;;;35.13;19.13;;;6.10;99.90;;;;;;5034177;28;20041;-60
2021/12/12 06:06:27;;;;;;;33.75;18.52;;;6.10;99.90;;;;;;5032971;28;20052;-61
2021/12/12 06:08:56;;;;;;;32.83;18.92;;;6.20;99.90;;;;;;5032972;28;20158;-60
2021/12/12 06:11:24;;;;;;;30.40;18.48;;;6.00;99.90;;;;;;5032619;28;20049;-60
2021/12/12 06:13:51;;;;;;;28.27;17.00;;;6.10;99.90;;;;;;5033883;28;20131;-60
2021/12/12 06:16:19;;;;;;;30.48;18.30;;;6.20;99.90;;;;;;5033732;28;20558;-61
2021/12/12 06:18:50;;;;;;;32.88;19.30;;;6.20;99.90;;;;;;5031883;28;20077;-61
2021/12/12 06:21:16;;;;;;;28.80;17.70;;;6.40;99.90;;;;;;5034003;28;20037;-61
2021/12/12 06:23:41;;;;;;;30.02;18.48;;;6.30;99.90;;;;;;5032415;28;20520;-61
2021/12/12 06:26:07;;;;;;;32.72;18.15;;;6.20;99.90;;;;;;5033591;28;20365;-60
2021/12/12 06:28:36;;;;;;;37.20;19.13;;;6.20;99.90;;;;;;5032292;28;20072;-60
2021/12/12 06:31:02;;;;;;;32.72;17.90;;;6.20;99.90;;;;;;5049189;28;20037;-60
2021/12/12 06:33:29;;;;;;;36.35;19.48;;;6.20;99.90;;;;;;5033473;28;20041;-60
2021/12/12 06:35:55;;;;;;;38.22;20.17;;;6.20;99.90;;;;;;5033557;28;20403;-61
2021/12/12 06:38:22;;;;;;;33.80;19.08;;;6.20;99.90;;;;;;5032362;28;20049;-61
2021/12/12 06:40:50;;;;;;;33.83;19.15;;;6.20;99.90;;;;;;5033539;28;20037;-61
2021/12/12 06:43:19;;;;;;;31.30;18.13;;;6.10;99.90;;;;;;5033325;28;20065;-63
2021/12/12 06:45:45;;;;;;;32.00;18.05;;;6.30;99.90;;;;;;5048472;28;20049;-62
2021/12/12 06:48:17;;;;;;;34.13;17.95;;;6.20;99.90;;;;;;5051908;28;20049;-62
2021/12/12 06:50:45;;;;;;;34.70;19.52;;;6.30;99.90;;;;;;5051671;28;20056;-62
2021/12/12 06:53:17;;;;;;;31.27;18.13;;;6.20;99.90;;;;;;5031540;28;20056;-62
2021/12/12 06:55:45;;;;;;;31.92;18.60;;;6.40;99.90;;;;;;5016726;28;20054;-62
2021/12/12 06:58:13;;;;;;;27.55;16.90;;;6.40;99.90;;;;;;5016351;28;20407;-62
2021/12/12 07:00:41;;;;;;;34.20;18.45;;;6.30;99.90;;;;;;5031865;28;20120;-62
2021/12/12 07:03:06;;;;;;;31.05;18.15;;;6.20;99.90;;;;;;5031681;28;20045;-62
2021/12/12 07:05:33;;;;;;;30.42;16.88;;;6.40;99.90;;;;;;5033011;28;20557;-62
2021/12/12 07:07:59;;;;;;;30.55;16.95;;;6.20;99.90;;;;;;5033482;28;20395;-62
2021/12/12 07:10:27;;;;;;;31.50;18.40;;;6.60;99.90;;;;;;5032790;28;20101;-62
2021/12/12 07:12:56;;;;;;;31.92;18.35;;;7.10;99.90;;;;;;5032043;28;20046;-62
2021/12/12 07:15:23;;;;;;;29.88;17.75;;;;;;;;;;5031709;28;20041;-62
2021/12/12 07:17:49;;;;;;;29.60;17.45;;;;;;;;;;5032972;28;20192;-62
2021/12/12 07:20:15;;;;;;;31.13;17.88;;;6.60;99.90;;;;;;5029153;28;20466;-61
2021/12/12 07:22:41;;;;;;;30.10;17.10;;;;;;;;;;5028833;28;20033;-61
2021/12/12 07:25:08;;;;;;;29.65;17.42;;;;;;;;;;5027619;28;20492;-61
2021/12/12 07:27:34;;;;;;;29.90;17.25;;;6.60;99.90;;;;;;5027736;28;20049;-61
2021/12/12 07:30:01;;;;;;;28.35;16.80;;;6.40;99.90;;;;;;5032466;28;20519;-62
2021/12/12 07:32:28;;;;;;;29.65;16.92;;;6.50;99.90;;;;;;5035777;28;20037;-62
2021/12/12 07:34:54;;;;;;;28.83;16.27;;;;;;;;;;5033100;28;20046;-61
2021/12/12 07:37:20;;;;;;;26.33;15.35;;;6.60;99.90;;;;;;5030751;28;20136;-61
2021/12/12 07:39:47;;;;;;;29.83;16.23;;;6.60;99.90;;;;;;5030319;28;20041;-61
2021/12/12 07:42:15;;;;;;;27.88;15.70;;;6.60;99.90;;;;;;5031915;28;20048;-62
2021/12/12 07:44:43;;;;;;;24.58;14.32;;;;;;;;;;5032779;28;20503;-62
2021/12/12 07:47:10;;;;;;;31.08;16.83;;;;;;;;;;5034159;28;20411;-62
2021/12/12 07:49:38;;;;;;;26.40;15.38;;;;;;;;;;5033131;28;20045;-62
2021/12/12 07:52:12;;;;;;;29.17;15.32;;;6.70;99.90;;;;;;5032504;28;20095;-62
2021/12/12 07:54:38;;;;;;;35.72;16.95;;;;;;;;;;5033548;28;20056;-62
2021/12/12 07:57:06;;;;;;;33.92;19.05;;;;;;;;;;5034169;28;20077;-62
2021/12/12 07:59:34;;;;;;;40.55;21.52;;;6.70;99.90;;;;;;5032930;28;20045;-62
2021/12/12 08:02:02;;;;;;;39.85;20.17;;;6.80;99.90;;;;;;5034067;28;20084;-62
2021/12/12 08:04:30;;;;;;;40.38;20.67;;;6.80;99.90;;;;;;5035035;28;20107;-62
2021/12/12 08:06:57;;;;;;;38.42;19.92;;;6.80;99.90;;;;;;5034973;28;20041;-62
2021/12/12 08:09:24;;;;;;;40.20;19.70;;;6.70;99.90;;;;;;5032161;28;20045;-62
2021/12/12 08:11:52;;;;;;;36.72;20.20;;;6.90;99.90;;;;;;5017943;28;20045;-62
2021/12/12 08:14:23;;;;;;;36.67;19.52;;;6.90;99.90;;;;;;5054332;28;20033;-62
2021/12/12 08:16:50;;;;;;;38.90;19.83;;;6.80;99.90;;;;;;5053856;28;20048;-63
2021/12/12 08:19:18;;;;;;;41.28;20.27;;;6.80;99.90;;;;;;5052610;28;20120;-64
2021/12/12 08:21:44;;;;;;;38.53;19.02;;;6.80;99.90;;;;;;5051716;28;20139;-64
2021/12/12 08:24:11;;;;;;;39.80;19.05;;;6.80;99.90;;;;;;5053115;28;20606;-64
2021/12/12 08:26:40;;;;;;;43.28;20.05;;;6.80;99.90;;;;;;5053295;28;20029;-64
2021/12/12 08:29:07;;;;;;;41.72;21.45;;;6.50;99.90;;;;;;5053403;28;20116;-64
2021/12/12 08:31:34;;;;;;;44.35;22.20;;;6.80;99.90;;;;;;5053532;28;20033;-64
2021/12/12 08:34:00;;;;;;;48.47;22.60;;;6.90;99.90;;;;;;5052076;28;20070;-64
2021/12/12 08:36:26;;;;;;;54.28;22.67;;;;;;;;;;5051961;28;20041;-64
2021/12/12 08:38:52;;;;;;;49.50;23.17;;;7.10;99.90;;;;;;5048522;28;20044;-63
2021/12/12 08:41:19;;;;;;;49.42;22.48;;;7.00;99.90;;;;;;5051622;28;20494;-63
2021/12/12 08:43:45;;;;;;;51.13;23.73;;;7.00;99.90;;;;;;5049625;28;20567;-63
2021/12/12 08:46:13;;;;;;;55.83;24.85;;;;;;;;;;5045901;28;20049;-63
2021/12/12 08:48:45;;;;;;;64.20;25.85;;;7.10;99.90;;;;;;5028181;28;20128;-64
2021/12/12 08:51:29;;;;;;;57.45;25.83;;;7.20;99.90;;;;;;5027004;28;20064;-64
2021/12/12 08:54:01;;;;;;;61.88;25.38;;;7.20;99.90;;;;;;5019935;28;20053;-64
2021/12/12 08:56:48;;;;;;;65.07;26.27;;;7.40;99.90;;;;;;5026374;28;20533;-64
2021/12/12 08:59:26;;;;;;;75.75;26.63;;;;;;;;;;5019310;28;20046;-64
2021/12/12 09:01:59;;;;;;;81.15;28.90;;;7.40;99.90;;;;;;5042324;28;20231;-64
2021/12/12 09:04:33;;;;;;;76.75;29.92;;;7.40;99.90;;;;;;5046322;28;20056;-63
2021/12/12 09:07:05;;;;;;;79.38;29.33;;;;;;;;;;5045150;28;20037;-64
2021/12/12 09:09:38;;;;;;;83.82;31.02;;;7.30;99.90;;;;;;5051915;28;20079;-64
2021/12/12 09:12:11;;;;;;;88.57;30.65;;;7.30;99.90;;;;;;5047872;28;20381;-62
2021/12/12 09:14:48;;;;;;;78.78;30.15;;;7.50;99.90;;;;;;5046621;28;20084;-63
2021/12/12 09:17:28;;;;;;;85.35;31.27;;;;;;;;;;5049816;28;20029;-62
2021/12/12 09:20:20;;;;;;;83.95;31.65;;;7.50;99.90;;;;;;5052004;28;20395;-62
2021/12/12 09:23:08;;;;;;;95.47;32.85;;;7.60;99.90;;;;;;5050612;28;20033;-63
2021/12/12 09:25:50;;;;;;;81.75;30.90;;;7.60;99.90;;;;;;5052486;28;20047;-63
2021/12/12 09:28:30;;;;;;;90.88;32.45;;;7.60;99.90;;;;;;5050560;28;20041;-63
2021/12/12 09:31:01;;;;;;;82.03;32.83;;;7.80;99.90;;;;;;5040834;28;20131;-63
2021/12/12 09:33:38;;;;;;;81.45;31.42;;;7.60;99.90;;;;;;5040172;28;20517;-62
2021/12/12 09:36:10;;;;;;;82.53;32.05;;;7.90;99.90;;;;;;5025654;28;20068;-64
2021/12/12 09:38:57;;;;;;;98.32;33.83;;;7.80;99.90;;;;;;5017587;28;20508;-62
2021/12/12 09:42:04;;;;;;;97.55;33.17;;;7.80;99.90;;;;;;5031463;28;20048;-64
2021/12/12 09:44:42;;;;;;;85.80;32.53;;;7.80;99.90;;;;;;5017185;28;20120;-62
2021/12/12 09:47:25;;;;;;;92.97;32.63;;;;;;;;;;5017097;28;20037;-63
2021/12/12 09:52:52;;;;;;;86.40;32.67;;;7.90;99.90;;;;;;5016944;28;20144;-62
2021/12/12 09:55:27;;;;;;;85.70;31.90;;;8.10;99.90;;;;;;5045372;28;20069;-63
2021/12/12 09:58:07;;;;;;;89.10;33.47;;;;;;;;;;5032656;28;20036;-64
2021/12/12 10:00:43;;;;;;;88.50;31.20;;;8.00;99.90;;;;;;5049596;28;20517;-64
2021/12/12 10:03:32;;;;;;;75.18;29.40;;;7.90;99.90;;;;;;5049602;28;20051;-64
2021/12/12 10:06:26;;;;;;;75.82;30.58;;;8.10;99.90;;;;;;5047973;28;20128;-63
2021/12/12 10:09:08;;;;;;;78.25;27.75;;;8.10;99.90;;;;;;5050232;28;20124;-63
2021/12/12 10:11:45;;;;;;;64.10;26.30;;;8.20;99.90;;;;;;5046110;28;20037;-64
2021/12/12 10:14:32;;;;;;;77.88;28.90;;;8.30;99.90;;;;;;5051325;28;20048;-64
2021/12/12 10:17:08;;;;;;;80.70;30.35;;;8.40;99.90;;;;;;5050338;28;20073;-65
2021/12/12 10:19:50;;;;;;;73.07;27.52;;;8.30;99.90;;;;;;5048992;28;20041;-63
2021/12/12 10:22:33;;;;;;;76.82;27.70;;;8.30;99.90;;;;;;5050194;28;20080;-62
2021/12/12 10:25:19;;;;;;;70.55;25.60;;;;;;;;;;5051344;28;20037;-63
2021/12/12 10:28:23;;;;;;;70.22;27.25;;;8.30;99.90;;;;;;5049784;28;20504;-62
2021/12/12 10:30:54;;;;;;;66.90;27.40;;;8.30;99.90;;;;;;5023028;28;20049;-63
2021/12/12 10:33:27;;;;;;;64.65;25.67;;;8.40;99.90;;;;;;5010121;28;20049;-63
2021/12/12 10:36:13;;;;;;;62.22;26.08;;;8.40;99.90;;;;;;5009161;28;20046;-64
2021/12/12 10:39:03;;;;;;;63.10;25.42;;;8.40;99.90;;;;;;5007580;28;20044;-62
2021/12/12 10:41:38;;;;;;;63.90;26.40;;;8.50;99.90;;;;;;5009084;28;20052;-62
2021/12/12 10:44:19;;;;;;;58.53;24.15;;;8.50;99.90;;;;;;5022051;28;20045;-62
2021/12/12 10:47:24;;;;;;;58.50;24.35;;;8.60;99.90;;;;;;5011847;28;20042;-62
2021/12/12 10:50:16;;;;;;;68.18;25.00;;;8.60;99.90;;;;;;5025003;28;20115;-63
2021/12/12 10:52:52;;;;;;;62.00;24.13;;;8.50;99.90;;;;;;5020083;28;20140;-63
2021/12/12 10:55:31;;;;;;;58.22;22.90;;;8.40;99.90;;;;;;5012494;28;20053;-63
2021/12/12 10:58:28;;;;;;;64.22;24.17;;;8.60;99.90;;;;;;5014167;28;20042;-64
2021/12/12 11:01:03;;;;;;;60.33;24.75;;;8.70;99.90;;;;;;5007307;28;20349;-63
2021/12/12 11:03:33;;;;;;;;;;;8.70;99.90;;;;;;5014931;28;20042;-63
2021/12/12 11:05:59;;;;;;;53.95;22.48;;;;;;;;;;5017002;28;20364;-63
2021/12/12 11:08:25;;;;;;;54.55;23.20;;;8.60;99.90;;;;;;5013098;28;20396;-62
2021/12/12 11:10:52;;;;;;;57.60;23.67;;;8.70;99.90;;;;;;5009072;28;20053;-61
2021/12/12 11:13:25;;;;;;;47.88;21.77;;;8.60;99.90;;;;;;5009275;28;20113;-61
2021/12/12 11:16:10;;;;;;;51.22;21.02;;;8.70;99.90;;;;;;5009218;28;20144;-60
2021/12/12 11:18:42;;;;;;;;;;;8.80;99.90;;;;;;5009587;28;20081;-60
2021/12/12 11:21:30;;;;;;;50.20;21.17;;;8.70;99.90;;;;;;5007759;28;19922;-60
2021/12/12 11:24:05;;;;;;;53.20;21.17;;;;;;;;;;5011845;28;20041;-61
2021/12/12 11:27:02;;;;;;;52.35;21.25;;;8.60;99.90;;;;;;5013998;28;20042;-60
2021/12/12 11:29:36;;;;;;;46.05;20.25;;;8.80;99.90;;;;;;5030508;28;20488;-62
2021/12/12 11:32:06;;;;;;;49.45;22.52;;;8.70;99.90;;;;;;5031700;28;20103;-62
2021/12/12 11:34:32;;;;;;;44.42;20.20;;;;;;;;;;5030117;28;20561;-62
2021/12/12 11:37:12;;;;;;;50.85;22.45;;;8.70;99.90;;;;;;5024217;28;20061;-62
2021/12/12 11:39:57;;;;;;;57.53;22.13;;;8.60;99.90;;;;;;5010642;28;20045;-62
2021/12/12 11:42:28;;;;;;;50.08;22.02;;;8.80;99.90;;;;;;5016699;28;20492;-62
2021/12/12 11:45:24;;;;;;;52.97;21.65;;;8.80;99.90;;;;;;5010951;28;20037;-62
2021/12/12 11:48:13;;;;;;;48.15;19.80;;;8.80;99.90;;;;;;5009844;28;20054;-62
2021/12/12 11:51:02;;;;;;;54.83;22.92;;;8.80;99.90;;;;;;5025888;28;20049;-62
2021/12/12 11:53:40;;;;;;;48.00;21.10;;;8.90;99.90;;;;;;5011457;28;20085;-62
2021/12/12 11:56:23;;;;;;;48.85;21.45;;;8.90;99.90;;;;;;5010410;28;20416;-61
2021/12/12 11:58:59;;;;;;;47.60;20.85;;;10.20;99.90;;;;;;5018588;28;20393;-61
2021/12/12 12:01:46;;;;;;;48.63;21.80;;;8.90;99.90;;;;;;5011344;28;20507;-62
2021/12/12 12:04:46;;;;;;;45.28;19.77;;;9.00;99.90;;;;;;5011461;28;20041;-62
2021/12/12 12:07:17;;;;;;;50.15;20.08;;;9.00;99.90;;;;;;5014586;28;20038;-62
2021/12/12 12:09:55;;;;;;;49.33;20.83;;;9.00;99.90;;;;;;5015184;28;20049;-60
2021/12/12 12:12:41;;;;;;;43.92;19.55;;;9.00;99.90;;;;;;5011060;28;20056;-63
2021/12/12 12:15:18;;;;;;;41.53;20.27;;;9.00;99.90;;;;;;5027790;28;20046;-63
2021/12/12 12:18:01;;;;;;;41.97;18.48;;;9.10;99.90;;;;;;5018585;28;20412;-63
2021/12/12 12:20:44;;;;;;;45.03;18.73;;;9.10;99.90;;;;;;5014651;28;20045;-64
2021/12/12 12:24:10;;;;;;;38.88;18.40;;;9.20;99.90;;;;;;5014429;28;20038;-63
2021/12/12 12:26:51;;;;;;;38.20;16.90;;;9.00;99.90;;;;;;5033185;28;20053;-64
2021/12/12 12:29:31;;;;;;;34.80;15.65;;;9.00;99.90;;;;;;5018815;28;20056;-65
2021/12/12 12:32:22;;;;;;;36.78;17.88;;;9.20;99.90;;;;;;5013488;28;20574;-65
2021/12/12 12:35:33;;;;;;;36.55;17.90;;;9.20;99.90;;;;;;5014681;28;20046;-65
2021/12/12 12:38:56;;;;;;;37.28;16.33;;;9.30;99.90;;;;;;5014708;28;20038;-64
2021/12/12 12:41:49;;;;;;;34.15;15.32;;;9.20;99.90;;;;;;5013448;28;20046;-62
2021/12/12 12:44:52;;;;;;;33.13;15.07;;;9.40;99.90;;;;;;5014333;28;20049;-62
2021/12/12 12:47:40;;;;;;;34.78;15.48;;;9.50;99.90;;;;;;5013432;28;20444;-61
2021/12/12 12:50:50;;;;;;;43.53;17.92;;;9.40;99.90;;;;;;5013210;28;20034;-62
2021/12/12 12:53:34;;;;;;;34.13;15.02;;;9.60;99.90;;;;;;5013242;28;20086;-63
2021/12/12 12:56:09;;;;;;;28.60;13.45;;;9.60;99.90;;;;;;5028235;28;20064;-63
2021/12/12 12:58:53;;;;;;;31.05;14.70;;;9.60;99.90;;;;;;5013858;28;20041;-60
2021/12/12 13:01:49;;;;;;;33.60;16.23;;;9.50;99.90;;;;;;5014275;28;20053;-62
2021/12/12 13:04:30;;;;;;;34.88;15.57;;;9.60;99.90;;;;;;5013122;28;20504;-62
2021/12/12 13:07:01;;;;;;;40.47;17.58;;;9.60;99.90;;;;;;5020000;28;20488;-63
2021/12/12 13:09:58;;;;;;;35.28;15.75;;;9.60;99.90;;;;;;5031477;28;20041;-63
2021/12/12 13:13:04;;;;;;;36.33;15.23;;;9.70;99.90;;;;;;5038351;28;20057;-63
2021/12/12 13:15:45;;;;;;;32.47;15.52;;;9.70;99.90;;;;;;5053651;28;20041;-62
2021/12/12 13:18:25;;;;;;;36.13;16.33;;;9.70;99.90;;;;;;5052295;28;20124;-61
2021/12/12 13:21:16;;;;;;;38.67;16.95;;;9.70;99.90;;;;;;5053471;28;20052;-61
2021/12/12 13:23:58;;;;;;;32.80;15.75;;;9.70;99.90;;;;;;5052211;28;20040;-62
2021/12/12 13:26:33;;;;;;;48.15;19.00;;;9.70;99.90;;;;;;5051786;28;20071;-62
2021/12/12 13:29:14;;;;;;;39.78;16.17;;;9.80;99.90;;;;;;5053311;28;20099;-62
2021/12/12 13:32:04;;;;;;;35.60;16.30;;;9.70;99.90;;;;;;5052173;28;20044;-63
2021/12/12 13:34:45;;;;;;;39.70;16.88;;;9.80;99.90;;;;;;5051699;28;20051;-63
2021/12/12 13:37:19;;;;;;;42.63;18.65;;;9.80;99.90;;;;;;5053516;28;20103;-64